sensor_id;sensor_type;location;lat;lon;timestamp;pressure;altitude;pressure_sealevel;temperature;humidity
6038;BME280;3047;42.600;23.470;2023-09-08T00:02:04;93630.97;;;18.67;100.00
6038;BME280;3047;42.600;23.470;2023-09-08T00:04:31;93626.72;;;18.68;100.00
6038;BME280;3047;42.600;23.470;2023-09-08T00:06:58;93628.72;;;18.78;100.00
6038;BME280;3047;42.600;23.470;2023-09-08T00:09:26;93619.66;;;18.73;100.00
6038;BME280;3047;42.600;23.470;2023-09-08T00:11:53;93624.81;;;18.71;100.00
6038;BME280;3047;42.600;23.470;2023-09-08T00:14:21;93615.81;;;18.64;100.00
6038;BME280;3047;42.600;23.470;2023-09-08T00:16:47;93621.44;;;18.71;100.00
6038;BME280;3047;42.600;23.470;2023-09-08T00:19:14;93622.41;;;18.68;100.00
6038;BME280;3047;42.600;23.470;2023-09-08T00:21:41;93628.41;;;18.67;100.00
6038;BME280;3047;42.600;23.470;2023-09-08T00:24:08;93616.91;;;18.59;100.00
6038;BME280;3047;42.600;23.470;2023-09-08T00:26:37;93615.34;;;18.73;100.00
6038;BME280;3047;42.600;23.470;2023-09-08T00:29:04;93625.13;;;18.65;100.00
6038;BME280;3047;42.600;23.470;2023-09-08T00:31:30;93620.91;;;18.47;100.00
6038;BME280;3047;42.600;23.470;2023-09-08T00:33:58;93618.75;;;18.57;100.00
6038;BME280;3047;42.600;23.470;2023-09-08T00:36:25;93614.44;;;18.74;100.00
6038;BME280;3047;42.600;23.470;2023-09-08T00:38:51;93610.91;;;18.60;100.00
6038;BME280;3047;42.600;23.470;2023-09-08T00:41:18;93613.69;;;18.55;100.00
6038;BME280;3047;42.600;23.470;2023-09-08T00:43:46;93613.97;;;18.66;100.00
6038;BME280;3047;42.600;23.470;2023-09-08T00:46:13;93611.50;;;18.65;100.00
6038;BME280;3047;42.600;23.470;2023-09-08T00:48:39;93610.53;;;18.50;100.00
6038;BME280;3047;42.600;23.470;2023-09-08T00:51:08;93612.59;;;18.43;100.00
6038;BME280;3047;42.600;23.470;2023-09-08T00:53:35;93603.78;;;18.49;100.00
6038;BME280;3047;42.600;23.470;2023-09-08T00:56:02;93610.31;;;18.54;100.00
6038;BME280;3047;42.600;23.470;2023-09-08T00:58:29;93603.69;;;18.50;100.00
6038;BME280;3047;42.600;23.470;2023-09-08T01:00:57;93597.16;;;18.45;100.00
6038;BME280;3047;42.600;23.470;2023-09-08T01:03:24;93598.06;;;18.44;100.00
6038;BME280;3047;42.600;23.470;2023-09-08T01:05:51;93595.56;;;18.60;100.00
6038;BME280;3047;42.600;23.470;2023-09-08T01:08:19;93595.56;;;18.60;100.00
6038;BME280;3047;42.600;23.470;2023-09-08T01:10:46;93595.03;;;18.53;100.00
6038;BME280;3047;42.600;23.470;2023-09-08T01:13:13;93597.75;;;18.50;100.00
6038;BME280;3047;42.600;23.470;2023-09-08T01:15:40;93605.38;;;18.51;100.00
6038;BME280;3047;42.600;23.470;2023-09-08T01:18:08;93598.00;;;18.45;100.00
6038;BME280;3047;42.600;23.470;2023-09-08T01:20:48;93584.75;;;18.37;100.00
6038;BME280;3047;42.600;23.470;2023-09-08T01:23:23;93571.69;;;18.43;100.00
6038;BME280;3047;42.600;23.470;2023-09-08T01:25:54;93577.38;;;18.48;100.00
6038;BME280;3047;42.600;23.470;2023-09-08T01:28:22;93579.38;;;18.59;100.00
6038;BME280;3047;42.600;23.470;2023-09-08T01:30:50;93595.47;;;18.78;100.00
6038;BME280;3047;42.600;23.470;2023-09-08T01:33:18;93611.19;;;18.88;100.00
6038;BME280;3047;42.600;23.470;2023-09-08T01:35:45;93587.53;;;18.83;100.00
6038;BME280;3047;42.600;23.470;2023-09-08T01:38:13;93607.84;;;18.86;100.00
6038;BME280;3047;42.600;23.470;2023-09-08T01:40:39;93601.91;;;18.86;100.00
6038;BME280;3047;42.600;23.470;2023-09-08T01:43:08;93593.31;;;18.87;100.00
6038;BME280;3047;42.600;23.470;2023-09-08T01:45:34;93598.13;;;18.93;100.00
6038;BME280;3047;42.600;23.470;2023-09-08T01:48:01;93604.81;;;18.95;100.00
6038;BME280;3047;42.600;23.470;2023-09-08T01:50:28;93596.06;;;18.99;100.00
6038;BME280;3047;42.600;23.470;2023-09-08T01:52:54;93599.13;;;19.06;100.00
6038;BME280;3047;42.600;23.470;2023-09-08T01:55:21;93597.97;;;19.12;100.00
6038;BME280;3047;42.600;23.470;2023-09-08T01:57:48;93599.56;;;19.14;100.00
6038;BME280;3047;42.600;23.470;2023-09-08T02:00:17;93600.22;;;19.18;100.00
6038;BME280;3047;42.600;23.470;2023-09-08T02:02:44;93605.34;;;19.18;100.00
6038;BME280;3047;42.600;23.470;2023-09-08T02:05:10;93597.56;;;19.19;100.00
6038;BME280;3047;42.600;23.470;2023-09-08T02:07:37;93601.72;;;19.22;100.00
6038;BME280;3047;42.600;23.470;2023-09-08T02:10:04;93603.44;;;19.21;100.00
6038;BME280;3047;42.600;23.470;2023-09-08T02:12:31;93596.59;;;19.22;100.00
6038;BME280;3047;42.600;23.470;2023-09-08T02:14:58;93592.53;;;19.18;100.00
6038;BME280;3047;42.600;23.470;2023-09-08T02:17:26;93593.09;;;19.07;100.00
6038;BME280;3047;42.600;23.470;2023-09-08T02:19:53;93586.69;;;19.00;100.00
6038;BME280;3047;42.600;23.470;2023-09-08T02:22:19;93584.03;;;19.01;100.00
6038;BME280;3047;42.600;23.470;2023-09-08T02:24:46;93574.34;;;18.91;100.00
6038;BME280;3047;42.600;23.470;2023-09-08T02:27:13;93568.31;;;18.92;100.00
6038;BME280;3047;42.600;23.470;2023-09-08T02:29:40;93578.38;;;18.95;100.00
6038;BME280;3047;42.600;23.470;2023-09-08T02:32:06;93576.47;;;18.83;100.00
6038;BME280;3047;42.600;23.470;2023-09-08T02:34:35;93576.81;;;18.76;100.00
6038;BME280;3047;42.600;23.470;2023-09-08T02:37:03;93553.72;;;18.61;100.00
6038;BME280;3047;42.600;23.470;2023-09-08T02:39:30;93569.28;;;18.73;100.00
6038;BME280;3047;42.600;23.470;2023-09-08T02:41:57;93576.41;;;18.67;100.00
6038;BME280;3047;42.600;23.470;2023-09-08T02:44:24;93571.69;;;18.59;100.00
6038;BME280;3047;42.600;23.470;2023-09-08T02:46:52;93567.97;;;18.49;100.00
6038;BME280;3047;42.600;23.470;2023-09-08T02:49:19;93565.66;;;18.44;100.00
6038;BME280;3047;42.600;23.470;2023-09-08T02:51:47;93560.38;;;18.30;100.00
6038;BME280;3047;42.600;23.470;2023-09-08T02:54:13;93571.47;;;18.13;100.00
6038;BME280;3047;42.600;23.470;2023-09-08T02:56:40;93567.72;;;18.03;100.00
6038;BME280;3047;42.600;23.470;2023-09-08T02:59:07;93568.16;;;17.94;100.00
6038;BME280;3047;42.600;23.470;2023-09-08T03:01:34;93564.50;;;17.99;100.00
6038;BME280;3047;42.600;23.470;2023-09-08T03:04:01;93563.59;;;18.00;100.00
6038;BME280;3047;42.600;23.470;2023-09-08T03:06:27;93567.19;;;17.96;100.00
6038;BME280;3047;42.600;23.470;2023-09-08T03:08:55;93565.97;;;17.86;100.00
6038;BME280;3047;42.600;23.470;2023-09-08T03:11:24;93561.88;;;17.84;100.00
6038;BME280;3047;42.600;23.470;2023-09-08T03:13:51;93555.00;;;17.67;100.00
6038;BME280;3047;42.600;23.470;2023-09-08T03:16:18;93560.00;;;17.68;100.00
6038;BME280;3047;42.600;23.470;2023-09-08T03:18:44;93569.41;;;17.50;100.00
6038;BME280;3047;42.600;23.470;2023-09-08T03:21:13;93564.81;;;17.57;100.00
6038;BME280;3047;42.600;23.470;2023-09-08T03:23:44;93570.50;;;17.62;100.00
6038;BME280;3047;42.600;23.470;2023-09-08T03:26:12;93569.91;;;17.57;100.00
6038;BME280;3047;42.600;23.470;2023-09-08T03:28:39;93569.00;;;17.58;100.00
6038;BME280;3047;42.600;23.470;2023-09-08T03:31:06;93566.41;;;17.60;100.00
6038;BME280;3047;42.600;23.470;2023-09-08T03:33:33;93572.69;;;17.52;100.00
6038;BME280;3047;42.600;23.470;2023-09-08T03:36:00;93563.16;;;17.56;100.00
6038;BME280;3047;42.600;23.470;2023-09-08T03:38:27;93541.19;;;17.35;100.00
6038;BME280;3047;42.600;23.470;2023-09-08T03:40:53;93569.31;;;17.52;100.00
6038;BME280;3047;42.600;23.470;2023-09-08T03:43:21;93570.06;;;17.54;100.00
6038;BME280;3047;42.600;23.470;2023-09-08T03:45:48;93572.59;;;17.54;100.00
6038;BME280;3047;42.600;23.470;2023-09-08T03:48:15;93553.38;;;17.47;100.00
6038;BME280;3047;42.600;23.470;2023-09-08T03:50:41;93564.56;;;17.44;100.00
6038;BME280;3047;42.600;23.470;2023-09-08T03:53:10;93570.34;;;17.48;100.00
6038;BME280;3047;42.600;23.470;2023-09-08T03:55:37;93564.34;;;17.49;100.00
6038;BME280;3047;42.600;23.470;2023-09-08T03:58:04;93565.47;;;17.43;100.00
6038;BME280;3047;42.600;23.470;2023-09-08T04:00:32;93563.59;;;17.47;100.00
6038;BME280;3047;42.600;23.470;2023-09-08T04:02:58;93553.97;;;17.52;100.00
6038;BME280;3047;42.600;23.470;2023-09-08T04:05:25;93566.84;;;17.50;100.00
6038;BME280;3047;42.600;23.470;2023-09-08T04:07:52;93558.06;;;17.56;100.00
6038;BME280;3047;42.600;23.470;2023-09-08T04:10:19;93557.97;;;17.58;100.00
6038;BME280;3047;42.600;23.470;2023-09-08T04:12:46;93555.50;;;17.56;100.00
6038;BME280;3047;42.600;23.470;2023-09-08T04:15:12;93561.78;;;17.49;100.00
6038;BME280;3047;42.600;23.470;2023-09-08T04:17:40;93565.59;;;17.40;100.00
6038;BME280;3047;42.600;23.470;2023-09-08T04:20:08;93560.50;;;17.40;100.00
6038;BME280;3047;42.600;23.470;2023-09-08T04:22:35;93563.75;;;17.44;100.00
6038;BME280;3047;42.600;23.470;2023-09-08T04:25:02;93554.47;;;17.24;100.00
6038;BME280;3047;42.600;23.470;2023-09-08T04:27:31;93562.31;;;17.38;100.00
6038;BME280;3047;42.600;23.470;2023-09-08T04:29:57;93565.53;;;17.42;100.00
6038;BME280;3047;42.600;23.470;2023-09-08T04:32:24;93576.50;;;17.44;100.00
6038;BME280;3047;42.600;23.470;2023-09-08T04:34:52;93573.03;;;17.45;100.00
6038;BME280;3047;42.600;23.470;2023-09-08T04:37:19;93576.06;;;17.53;100.00
6038;BME280;3047;42.600;23.470;2023-09-08T04:39:46;93581.84;;;17.57;100.00
6038;BME280;3047;42.600;23.470;2023-09-08T04:42:13;93579.53;;;17.52;100.00
6038;BME280;3047;42.600;23.470;2023-09-08T04:44:40;93582.00;;;17.53;100.00
6038;BME280;3047;42.600;23.470;2023-09-08T04:47:06;93571.13;;;17.67;100.00
6038;BME280;3047;42.600;23.470;2023-09-08T04:49:33;93576.66;;;17.77;100.00
6038;BME280;3047;42.600;23.470;2023-09-08T04:52:01;93589.59;;;17.91;100.00
6038;BME280;3047;42.600;23.470;2023-09-08T04:54:28;93587.31;;;18.02;100.00
6038;BME280;3047;42.600;23.470;2023-09-08T04:56:55;93587.78;;;18.11;100.00
6038;BME280;3047;42.600;23.470;2023-09-08T04:59:21;93590.28;;;18.12;100.00
6038;BME280;3047;42.600;23.470;2023-09-08T05:01:49;93580.34;;;18.23;100.00
6038;BME280;3047;42.600;23.470;2023-09-08T05:04:17;93575.88;;;18.27;100.00
6038;BME280;3047;42.600;23.470;2023-09-08T05:06:44;93582.59;;;18.29;100.00
6038;BME280;3047;42.600;23.470;2023-09-08T05:09:13;93588.97;;;18.38;100.00
6038;BME280;3047;42.600;23.470;2023-09-08T05:11:40;93591.28;;;18.43;100.00
6038;BME280;3047;42.600;23.470;2023-09-08T05:14:07;93570.19;;;18.39;100.00
6038;BME280;3047;42.600;23.470;2023-09-08T05:16:33;93595.97;;;18.52;100.00
6038;BME280;3047;42.600;23.470;2023-09-08T05:19:10;93591.09;;;18.63;100.00
6038;BME280;3047;42.600;23.470;2023-09-08T05:21:37;93596.47;;;18.76;100.00
6038;BME280;3047;42.600;23.470;2023-09-08T05:24:04;93591.97;;;18.80;100.00
6038;BME280;3047;42.600;23.470;2023-09-08T05:26:32;93599.28;;;18.87;100.00
6038;BME280;3047;42.600;23.470;2023-09-08T05:28:59;93603.84;;;18.98;100.00
6038;BME280;3047;42.600;23.470;2023-09-08T05:31:25;93597.09;;;19.13;100.00
6038;BME280;3047;42.600;23.470;2023-09-08T05:33:52;93607.16;;;19.16;100.00
6038;BME280;3047;42.600;23.470;2023-09-08T05:36:19;93605.44;;;19.16;100.00
6038;BME280;3047;42.600;23.470;2023-09-08T05:38:46;93609.56;;;19.35;93.76
6038;BME280;3047;42.600;23.470;2023-09-08T05:41:12;93586.75;;;19.14;95.45
6038;BME280;3047;42.600;23.470;2023-09-08T05:43:41;93603.09;;;19.27;95.85
6038;BME280;3047;42.600;23.470;2023-09-08T05:46:07;93606.59;;;19.42;95.23
6038;BME280;3047;42.600;23.470;2023-09-08T05:48:34;93613.09;;;19.48;96.68
6038;BME280;3047;42.600;23.470;2023-09-08T05:51:01;93614.59;;;19.52;94.97
6038;BME280;3047;42.600;23.470;2023-09-08T05:53:28;93614.16;;;19.60;91.71
6038;BME280;3047;42.600;23.470;2023-09-08T05:55:55;93617.25;;;19.66;89.66
6038;BME280;3047;42.600;23.470;2023-09-08T05:58:21;93573.03;;;19.47;88.77
6038;BME280;3047;42.600;23.470;2023-09-08T06:00:51;93616.19;;;19.70;90.45
6038;BME280;3047;42.600;23.470;2023-09-08T06:03:17;93612.53;;;19.74;90.20
6038;BME280;3047;42.600;23.470;2023-09-08T06:05:44;93606.44;;;19.77;89.59
6038;BME280;3047;42.600;23.470;2023-09-08T06:08:11;93609.84;;;19.92;90.04
6038;BME280;3047;42.600;23.470;2023-09-08T06:10:38;93612.09;;;19.98;87.93
6038;BME280;3047;42.600;23.470;2023-09-08T06:13:04;93609.91;;;20.06;89.42
6038;BME280;3047;42.600;23.470;2023-09-08T06:15:31;93611.94;;;20.15;91.82
6038;BME280;3047;42.600;23.470;2023-09-08T06:17:59;93614.16;;;20.21;91.33
6038;BME280;3047;42.600;23.470;2023-09-08T06:20:26;93590.34;;;20.19;90.98
6038;BME280;3047;42.600;23.470;2023-09-08T06:22:52;93604.38;;;20.28;91.74
6038;BME280;3047;42.600;23.470;2023-09-08T06:25:19;93616.59;;;20.39;90.71
6038;BME280;3047;42.600;23.470;2023-09-08T06:27:46;93613.66;;;20.45;91.14
6038;BME280;3047;42.600;23.470;2023-09-08T06:30:13;93608.59;;;20.59;93.28
6038;BME280;3047;42.600;23.470;2023-09-08T06:32:43;93608.78;;;20.70;92.15
6038;BME280;3047;42.600;23.470;2023-09-08T06:35:11;93619.66;;;20.74;93.86
6038;BME280;3047;42.600;23.470;2023-09-08T06:37:38;93625.28;;;20.81;89.80
6038;BME280;3047;42.600;23.470;2023-09-08T06:40:06;93614.28;;;20.79;90.53
6038;BME280;3047;42.600;23.470;2023-09-08T06:42:33;93621.69;;;20.97;92.26
6038;BME280;3047;42.600;23.470;2023-09-08T06:45:00;93623.44;;;20.97;92.68
6038;BME280;3047;42.600;23.470;2023-09-08T06:47:26;93585.31;;;20.77;90.18
6038;BME280;3047;42.600;23.470;2023-09-08T06:49:53;93620.78;;;21.13;88.65
6038;BME280;3047;42.600;23.470;2023-09-08T06:52:21;93631.81;;;21.15;89.06
6038;BME280;3047;42.600;23.470;2023-09-08T06:54:48;93622.34;;;21.15;87.17
6038;BME280;3047;42.600;23.470;2023-09-08T06:57:17;93632.59;;;21.30;86.66
6038;BME280;3047;42.600;23.470;2023-09-08T06:59:44;93628.50;;;21.27;88.71
6038;BME280;3047;42.600;23.470;2023-09-08T07:02:11;93626.19;;;21.37;90.52
6038;BME280;3047;42.600;23.470;2023-09-08T07:04:37;93630.34;;;21.39;88.95
6038;BME280;3047;42.600;23.470;2023-09-08T07:07:04;93635.72;;;21.49;90.16
6038;BME280;3047;42.600;23.470;2023-09-08T07:09:34;93625.34;;;21.51;86.22
6038;BME280;3047;42.600;23.470;2023-09-08T07:28:42;93602.63;;;22.11;79.33
6038;BME280;3047;42.600;23.470;2023-09-08T07:31:09;93624.81;;;22.27;79.59
6038;BME280;3047;42.600;23.470;2023-09-08T07:33:37;93616.72;;;22.33;80.00
6038;BME280;3047;42.600;23.470;2023-09-08T07:36:04;93623.88;;;22.28;76.87
6038;BME280;3047;42.600;23.470;2023-09-08T07:38:31;93607.41;;;22.17;76.91
6038;BME280;3047;42.600;23.470;2023-09-08T07:40:59;93624.63;;;22.30;77.34
6038;BME280;3047;42.600;23.470;2023-09-08T07:43:26;93626.25;;;22.31;79.11
6038;BME280;3047;42.600;23.470;2023-09-08T07:45:54;93625.25;;;22.33;78.66
6038;BME280;3047;42.600;23.470;2023-09-08T07:48:21;93621.75;;;22.34;80.15
6038;BME280;3047;42.600;23.470;2023-09-08T07:50:47;93615.91;;;22.45;79.40
6038;BME280;3047;42.600;23.470;2023-09-08T07:53:14;93615.72;;;22.61;78.62
6038;BME280;3047;42.600;23.470;2023-09-08T07:55:41;93615.91;;;22.70;78.28
6038;BME280;3047;42.600;23.470;2023-09-08T07:58:15;93614.34;;;22.81;79.09
6038;BME280;3047;42.600;23.470;2023-09-08T08:00:42;93616.53;;;23.00;78.50
6038;BME280;3047;42.600;23.470;2023-09-08T08:03:10;93610.75;;;23.09;76.95
6038;BME280;3047;42.600;23.470;2023-09-08T08:05:37;93614.34;;;23.32;75.33
6038;BME280;3047;42.600;23.470;2023-09-08T08:08:04;93608.09;;;23.47;75.28
6038;BME280;3047;42.600;23.470;2023-09-08T08:10:32;93612.50;;;23.71;72.76
6038;BME280;3047;42.600;23.470;2023-09-08T08:12:58;93620.53;;;23.79;71.84
6038;BME280;3047;42.600;23.470;2023-09-08T08:15:35;93619.72;;;23.78;68.84
6038;BME280;3047;42.600;23.470;2023-09-08T08:18:03;93601.06;;;23.86;69.61
6038;BME280;3047;42.600;23.470;2023-09-08T08:20:31;93612.25;;;24.22;65.44
6038;BME280;3047;42.600;23.470;2023-09-08T08:23:00;93606.16;;;24.58;67.84
6038;BME280;3047;42.600;23.470;2023-09-08T08:25:27;93605.03;;;24.84;66.31
6038;BME280;3047;42.600;23.470;2023-09-08T08:27:54;93588.59;;;24.97;65.26
6038;BME280;3047;42.600;23.470;2023-09-08T08:30:21;93612.91;;;25.05;62.58
6038;BME280;3047;42.600;23.470;2023-09-08T08:32:48;93621.53;;;25.17;63.70
6038;BME280;3047;42.600;23.470;2023-09-08T08:35:16;93603.44;;;25.28;63.87
6038;BME280;3047;42.600;23.470;2023-09-08T08:37:44;93614.75;;;25.71;63.17
6038;BME280;3047;42.600;23.470;2023-09-08T08:40:12;93611.22;;;25.94;61.77
6038;BME280;3047;42.600;23.470;2023-09-08T08:42:40;93601.06;;;26.02;61.64
6038;BME280;3047;42.600;23.470;2023-09-08T08:45:07;93599.91;;;25.95;62.17
6038;BME280;3047;42.600;23.470;2023-09-08T08:47:34;93601.66;;;25.95;60.83
6038;BME280;3047;42.600;23.470;2023-09-08T08:50:01;93607.44;;;25.98;61.16
6038;BME280;3047;42.600;23.470;2023-09-08T08:52:30;93600.84;;;25.94;60.49
6038;BME280;3047;42.600;23.470;2023-09-08T08:54:59;93603.13;;;26.08;61.63
6038;BME280;3047;42.600;23.470;2023-09-08T08:57:26;93606.31;;;26.12;60.52
6038;BME280;3047;42.600;23.470;2023-09-08T08:59:54;93602.34;;;25.97;60.58
6038;BME280;3047;42.600;23.470;2023-09-08T09:02:21;93596.97;;;25.88;59.50
6038;BME280;3047;42.600;23.470;2023-09-08T09:04:49;93588.41;;;25.77;58.65
6038;BME280;3047;42.600;23.470;2023-09-08T09:07:18;93594.16;;;25.80;61.01
6038;BME280;3047;42.600;23.470;2023-09-08T09:09:46;93579.69;;;25.89;60.36
6038;BME280;3047;42.600;23.470;2023-09-08T09:12:14;93585.56;;;25.91;60.13
6038;BME280;3047;42.600;23.470;2023-09-08T09:14:45;93593.06;;;26.05;62.38
6038;BME280;3047;42.600;23.470;2023-09-08T09:17:13;93561.09;;;26.16;60.65
6038;BME280;3047;42.600;23.470;2023-09-08T09:19:40;93587.16;;;26.56;60.08
6038;BME280;3047;42.600;23.470;2023-09-08T09:22:07;93536.41;;;26.33;57.55
6038;BME280;3047;42.600;23.470;2023-09-08T09:24:35;93589.44;;;26.71;57.83
6038;BME280;3047;42.600;23.470;2023-09-08T09:27:06;93582.97;;;26.86;56.20
6038;BME280;3047;42.600;23.470;2023-09-08T09:29:44;93580.47;;;27.05;56.31
6038;BME280;3047;42.600;23.470;2023-09-08T09:32:12;93576.38;;;27.03;57.33
6038;BME280;3047;42.600;23.470;2023-09-08T09:34:47;93581.53;;;27.24;57.76
6038;BME280;3047;42.600;23.470;2023-09-08T09:37:15;93569.19;;;27.47;55.57
6038;BME280;3047;42.600;23.470;2023-09-08T09:39:42;93580.53;;;27.65;56.49
6038;BME280;3047;42.600;23.470;2023-09-08T09:42:08;93571.53;;;27.59;54.15
6038;BME280;3047;42.600;23.470;2023-09-08T09:44:36;93529.59;;;27.14;52.89
6038;BME280;3047;42.600;23.470;2023-09-08T09:47:04;93576.81;;;27.48;51.75
6038;BME280;3047;42.600;23.470;2023-09-08T09:49:32;93576.97;;;27.47;52.19
6038;BME280;3047;42.600;23.470;2023-09-08T09:52:07;93558.25;;;27.43;54.09
6038;BME280;3047;42.600;23.470;2023-09-08T09:54:34;93568.78;;;27.51;53.55
6038;BME280;3047;42.600;23.470;2023-09-08T09:57:01;93562.06;;;27.58;53.96
6038;BME280;3047;42.600;23.470;2023-09-08T09:59:30;93567.75;;;27.33;52.74
6038;BME280;3047;42.600;23.470;2023-09-08T10:01:59;93561.50;;;27.35;53.34
6038;BME280;3047;42.600;23.470;2023-09-08T10:04:26;93559.47;;;27.39;54.59
6038;BME280;3047;42.600;23.470;2023-09-08T10:06:54;93534.03;;;27.33;53.96
6038;BME280;3047;42.600;23.470;2023-09-08T10:09:23;93557.53;;;27.31;52.60
6038;BME280;3047;42.600;23.470;2023-09-08T10:11:50;93550.00;;;27.28;53.59
6038;BME280;3047;42.600;23.470;2023-09-08T10:14:21;93543.19;;;27.37;53.91
6038;BME280;3047;42.600;23.470;2023-09-08T10:16:49;93524.50;;;27.43;56.50
6038;BME280;3047;42.600;23.470;2023-09-08T10:19:20;93539.88;;;27.75;54.07
6038;BME280;3047;42.600;23.470;2023-09-08T10:21:50;93551.28;;;27.53;52.99
6038;BME280;3047;42.600;23.470;2023-09-08T10:24:21;93541.44;;;27.47;54.70
6038;BME280;3047;42.600;23.470;2023-09-08T10:26:54;93542.00;;;27.60;52.48
6038;BME280;3047;42.600;23.470;2023-09-08T10:29:22;93542.00;;;27.70;53.11
6038;BME280;3047;42.600;23.470;2023-09-08T10:31:50;93530.56;;;27.73;52.11
6038;BME280;3047;42.600;23.470;2023-09-08T10:34:19;93536.88;;;27.80;53.93
6038;BME280;3047;42.600;23.470;2023-09-08T10:36:46;93540.09;;;27.53;53.30
6038;BME280;3047;42.600;23.470;2023-09-08T10:39:28;93553.28;;;27.30;53.10
6038;BME280;3047;42.600;23.470;2023-09-08T10:42:20;93552.56;;;26.88;52.08
6038;BME280;3047;42.600;23.470;2023-09-08T10:44:58;93529.03;;;26.70;53.60
6038;BME280;3047;42.600;23.470;2023-09-08T10:47:31;93525.97;;;26.65;56.32
6038;BME280;3047;42.600;23.470;2023-09-08T10:50:01;93544.56;;;26.49;54.45
6038;BME280;3047;42.600;23.470;2023-09-08T10:52:29;93529.59;;;26.32;57.59
6038;BME280;3047;42.600;23.470;2023-09-08T10:54:58;93533.94;;;26.31;57.33
6038;BME280;3047;42.600;23.470;2023-09-08T10:57:25;93535.53;;;26.23;56.47
6038;BME280;3047;42.600;23.470;2023-09-08T10:59:52;93549.09;;;26.15;57.97
6038;BME280;3047;42.600;23.470;2023-09-08T11:02:33;93543.44;;;26.21;59.11
6038;BME280;3047;42.600;23.470;2023-09-08T11:05:02;93490.31;;;25.85;60.23
6038;BME280;3047;42.600;23.470;2023-09-08T11:07:30;93550.44;;;25.77;61.36
6038;BME280;3047;42.600;23.470;2023-09-08T11:09:57;93550.47;;;25.55;62.13
6038;BME280;3047;42.600;23.470;2023-09-08T11:12:26;93546.50;;;25.39;61.66
6038;BME280;3047;42.600;23.470;2023-09-08T11:14:53;93539.94;;;25.35;62.37
6038;BME280;3047;42.600;23.470;2023-09-08T11:17:20;93544.06;;;25.27;61.40
6038;BME280;3047;42.600;23.470;2023-09-08T11:19:48;93545.03;;;25.14;62.20
6038;BME280;3047;42.600;23.470;2023-09-08T11:22:17;93538.53;;;24.98;63.72
6038;BME280;3047;42.600;23.470;2023-09-08T11:24:44;93544.31;;;24.90;63.38
6038;BME280;3047;42.600;23.470;2023-09-08T11:27:11;93523.16;;;24.74;64.12
6038;BME280;3047;42.600;23.470;2023-09-08T11:29:38;93530.22;;;24.72;64.77
6038;BME280;3047;42.600;23.470;2023-09-08T11:32:06;93538.66;;;24.74;64.70
6038;BME280;3047;42.600;23.470;2023-09-08T11:34:34;93522.56;;;24.59;64.68
6038;BME280;3047;42.600;23.470;2023-09-08T11:37:00;93529.63;;;24.57;65.29
6038;BME280;3047;42.600;23.470;2023-09-08T11:39:36;93534.41;;;24.50;65.36
6038;BME280;3047;42.600;23.470;2023-09-08T11:42:03;93520.56;;;24.40;65.30
6038;BME280;3047;42.600;23.470;2023-09-08T11:44:30;93519.13;;;24.36;65.47
6038;BME280;3047;42.600;23.470;2023-09-08T11:46:56;93526.41;;;24.31;66.34
6038;BME280;3047;42.600;23.470;2023-09-08T11:49:25;93521.31;;;24.29;66.09
6038;BME280;3047;42.600;23.470;2023-09-08T11:51:51;93506.53;;;24.20;65.79
6038;BME280;3047;42.600;23.470;2023-09-08T11:54:18;93509.47;;;24.15;66.32
6038;BME280;3047;42.600;23.470;2023-09-08T11:56:46;93509.81;;;24.22;66.41
6038;BME280;3047;42.600;23.470;2023-09-08T11:59:13;93510.66;;;24.23;67.61
6038;BME280;3047;42.600;23.470;2023-09-08T12:01:40;93507.38;;;24.32;66.04
6038;BME280;3047;42.600;23.470;2023-09-08T12:04:16;93508.00;;;24.58;65.05
6038;BME280;3047;42.600;23.470;2023-09-08T12:06:43;93508.16;;;24.67;64.35
6038;BME280;3047;42.600;23.470;2023-09-08T12:09:10;93499.69;;;24.65;65.23
6038;BME280;3047;42.600;23.470;2023-09-08T12:11:36;93495.91;;;24.58;63.01
6038;BME280;3047;42.600;23.470;2023-09-08T12:14:10;93499.44;;;24.46;64.86
6038;BME280;3047;42.600;23.470;2023-09-08T12:16:37;93494.84;;;24.38;64.92
6038;BME280;3047;42.600;23.470;2023-09-08T12:19:04;93468.63;;;24.21;64.43
6038;BME280;3047;42.600;23.470;2023-09-08T12:21:31;93494.63;;;24.41;66.01
6038;BME280;3047;42.600;23.470;2023-09-08T12:23:58;93484.88;;;24.56;66.53
6038;BME280;3047;42.600;23.470;2023-09-08T12:26:25;93484.31;;;24.64;64.92
6038;BME280;3047;42.600;23.470;2023-09-08T12:28:52;93482.53;;;24.53;64.72
6038;BME280;3047;42.600;23.470;2023-09-08T12:31:20;93479.00;;;24.54;64.09
6038;BME280;3047;42.600;23.470;2023-09-08T12:33:47;93470.66;;;24.51;62.48
6038;BME280;3047;42.600;23.470;2023-09-08T12:36:14;93481.59;;;24.54;62.32
6038;BME280;3047;42.600;23.470;2023-09-08T12:38:47;93477.69;;;24.37;62.19
6038;BME280;3047;42.600;23.470;2023-09-08T12:41:14;93456.44;;;24.23;62.39
6038;BME280;3047;42.600;23.470;2023-09-08T12:43:41;93469.91;;;24.26;61.78
6038;BME280;3047;42.600;23.470;2023-09-08T12:46:08;93475.56;;;24.20;63.15
6038;BME280;3047;42.600;23.470;2023-09-08T12:48:36;93471.56;;;24.16;63.73
6038;BME280;3047;42.600;23.470;2023-09-08T12:51:02;93472.13;;;24.08;64.64
6038;BME280;3047;42.600;23.470;2023-09-08T12:53:32;93480.56;;;24.10;63.95
6038;BME280;3047;42.600;23.470;2023-09-08T12:55:59;93472.00;;;24.10;63.88
6038;BME280;3047;42.600;23.470;2023-09-08T12:58:26;93471.75;;;24.02;63.19
6038;BME280;3047;42.600;23.470;2023-09-08T13:00:54;93472.56;;;24.02;64.18
6038;BME280;3047;42.600;23.470;2023-09-08T13:03:21;93477.72;;;24.02;63.29
6038;BME280;3047;42.600;23.470;2023-09-08T13:05:49;93469.78;;;24.05;63.32
6038;BME280;3047;42.600;23.470;2023-09-08T13:08:16;93466.13;;;23.97;63.74
6038;BME280;3047;42.600;23.470;2023-09-08T13:10:43;93473.75;;;24.09;63.87
6038;BME280;3047;42.600;23.470;2023-09-08T13:13:09;93471.06;;;24.00;65.02
6038;BME280;3047;42.600;23.470;2023-09-08T13:15:36;93469.31;;;24.00;65.17
6038;BME280;3047;42.600;23.470;2023-09-08T13:18:03;93467.41;;;24.02;64.57
6038;BME280;3047;42.600;23.470;2023-09-08T13:20:29;93466.41;;;24.16;64.40
6038;BME280;3047;42.600;23.470;2023-09-08T13:22:57;93472.97;;;24.20;64.06
6038;BME280;3047;42.600;23.470;2023-09-08T13:25:24;93470.38;;;24.20;64.15
6038;BME280;3047;42.600;23.470;2023-09-08T13:27:51;93471.69;;;24.26;64.70